aviador You're here:

LFCK Decoded Metar

CASTRES in FRANCE
Report Time2017-12-11 22:30:00
UTC Time2017-12-11 22:57:44
Flight Rules vfr VFR
Wind290° at 06 kt
W.Decomp.*RWY 32: 5.2 kt HW 3 kt LCW
W.Rank290° ranks 4
Current wind is below 290° avg. (8.8)
Visibility9999 m
Phenomena:N/A
Clouds:Few 024 Hf
Overcast 040 Hf
Expected CloudBase > 800 ft AGL from Temp-Dew spread
Ceiling4,000 ft
Temp06°C
Dew Point04°C (87% RH)
AAT2.5°C
QNH1003 hPa
Raw Report
METAR LFCK 112230Z AUTO 29006KT 9999 FEW024 OVC040 06/04 Q1003=

Extra information for LFCK:More info

Metar Taf Metar & Taf Last 4 Metars F.Rules Stats Wind Profile Meteogram Temp Stats Airport Information Weather charts Add Link Nearby VenuesMetar ALERT Operation Metar Decoded Social comments